sensor_id;sensor_type;location;lat;lon;timestamp;pressure;altitude;pressure_sealevel;temperature;humidity
31337;BME280;22846;42.654;23.314;2023-08-06T00:00:50;93411.13;;;27.39;49.54
31337;BME280;22846;42.654;23.314;2023-08-06T00:03:15;93425.13;;;27.41;49.18
31337;BME280;22846;42.654;23.314;2023-08-06T00:05:43;93455.88;;;27.45;49.00
31337;BME280;22846;42.654;23.314;2023-08-06T00:08:09;93458.13;;;27.46;48.62
31337;BME280;22846;42.654;23.314;2023-08-06T00:10:34;93459.13;;;27.49;49.16
31337;BME280;22846;42.654;23.314;2023-08-06T00:13:00;93448.91;;;27.49;49.34
31337;BME280;22846;42.654;23.314;2023-08-06T00:15:25;93435.66;;;27.48;48.82
31337;BME280;22846;42.654;23.314;2023-08-06T00:17:50;93426.47;;;27.51;49.21
31337;BME280;22846;42.654;23.314;2023-08-06T00:20:16;93430.72;;;27.52;49.26
31337;BME280;22846;42.654;23.314;2023-08-06T00:22:41;93435.72;;;27.53;49.10
31337;BME280;22846;42.654;23.314;2023-08-06T00:25:07;93444.72;;;27.54;49.12
31337;BME280;22846;42.654;23.314;2023-08-06T00:27:32;93443.22;;;27.53;48.96
31337;BME280;22846;42.654;23.314;2023-08-06T00:29:58;93432.19;;;27.47;49.16
31337;BME280;22846;42.654;23.314;2023-08-06T00:32:24;93423.22;;;27.47;49.42
31337;BME280;22846;42.654;23.314;2023-08-06T00:34:49;93404.25;;;27.49;49.62
31337;BME280;22846;42.654;23.314;2023-08-06T00:37:18;93422.75;;;27.54;49.38
31337;BME280;22846;42.654;23.314;2023-08-06T00:39:44;93418.78;;;27.55;49.01
31337;BME280;22846;42.654;23.314;2023-08-06T00:42:10;93420.03;;;27.54;49.21
31337;BME280;22846;42.654;23.314;2023-08-06T00:44:36;93414.53;;;27.54;48.68
31337;BME280;22846;42.654;23.314;2023-08-06T00:47:02;93407.53;;;27.53;48.46
31337;BME280;22846;42.654;23.314;2023-08-06T00:49:27;93406.03;;;27.52;49.07
31337;BME280;22846;42.654;23.314;2023-08-06T00:51:53;93413.50;;;27.51;49.33
31337;BME280;22846;42.654;23.314;2023-08-06T00:54:18;93412.75;;;27.51;49.18
31337;BME280;22846;42.654;23.314;2023-08-06T00:56:45;93412.75;;;27.51;49.16
31337;BME280;22846;42.654;23.314;2023-08-06T00:59:12;93398.00;;;27.48;49.56
31337;BME280;22846;42.654;23.314;2023-08-06T01:01:37;93399.03;;;27.51;49.52
31337;BME280;22846;42.654;23.314;2023-08-06T01:04:03;93382.25;;;27.43;49.30
31337;BME280;22846;42.654;23.314;2023-08-06T01:06:40;93379.06;;;27.50;49.46
31337;BME280;22846;42.654;23.314;2023-08-06T01:12:18;93365.81;;;27.49;49.73
31337;BME280;22846;42.654;23.314;2023-08-06T01:15:19;93381.56;;;27.48;49.52
31337;BME280;22846;42.654;23.314;2023-08-06T01:17:46;93369.78;;;27.42;49.26
31337;BME280;22846;42.654;23.314;2023-08-06T01:20:11;93378.81;;;27.48;49.65
31337;BME280;22846;42.654;23.314;2023-08-06T01:22:37;93369.06;;;27.47;49.53
31337;BME280;22846;42.654;23.314;2023-08-06T01:25:02;93362.06;;;27.46;49.52
31337;BME280;22846;42.654;23.314;2023-08-06T01:30:12;93363.81;;;27.44;48.87
31337;BME280;22846;42.654;23.314;2023-08-06T01:32:42;93364.53;;;27.44;49.17
31337;BME280;22846;42.654;23.314;2023-08-06T01:35:10;93352.06;;;27.43;49.65
31337;BME280;22846;42.654;23.314;2023-08-06T01:37:37;93348.56;;;27.43;50.01
31337;BME280;22846;42.654;23.314;2023-08-06T01:40:15;93323.03;;;27.32;50.25
31337;BME280;22846;42.654;23.314;2023-08-06T01:42:40;93344.59;;;27.44;49.79
31337;BME280;22846;42.654;23.314;2023-08-06T01:45:07;93325.56;;;27.35;49.64
31337;BME280;22846;42.654;23.314;2023-08-06T01:47:33;93342.75;;;27.35;49.91
31337;BME280;22846;42.654;23.314;2023-08-06T01:49:58;93349.81;;;27.42;50.01
31337;BME280;22846;42.654;23.314;2023-08-06T01:52:24;93351.31;;;27.43;50.18
31337;BME280;22846;42.654;23.314;2023-08-06T01:54:49;93356.81;;;27.43;50.48
31337;BME280;22846;42.654;23.314;2023-08-06T01:57:14;93349.31;;;27.43;50.30
31337;BME280;22846;42.654;23.314;2023-08-06T01:59:40;93357.53;;;27.43;50.24
31337;BME280;22846;42.654;23.314;2023-08-06T02:02:05;93341.06;;;27.43;49.99
31337;BME280;22846;42.654;23.314;2023-08-06T02:04:31;93333.63;;;27.44;50.25
31337;BME280;22846;42.654;23.314;2023-08-06T02:06:56;93336.63;;;27.46;50.24
31337;BME280;22846;42.654;23.314;2023-08-06T02:09:21;93327.63;;;27.45;49.97
31337;BME280;22846;42.654;23.314;2023-08-06T02:11:47;93335.88;;;27.45;50.06
31337;BME280;22846;42.654;23.314;2023-08-06T02:14:12;93335.13;;;27.45;50.00
31337;BME280;22846;42.654;23.314;2023-08-06T02:16:37;93343.34;;;27.45;50.03
31337;BME280;22846;42.654;23.314;2023-08-06T02:19:03;93346.56;;;27.43;50.21
31337;BME280;22846;42.654;23.314;2023-08-06T02:21:28;93368.53;;;27.43;50.25
31337;BME280;22846;42.654;23.314;2023-08-06T02:23:54;93376.75;;;27.43;49.90
31337;BME280;22846;42.654;23.314;2023-08-06T02:26:19;93363.03;;;27.43;49.95
31337;BME280;22846;42.654;23.314;2023-08-06T02:28:45;93343.81;;;27.43;50.45
31337;BME280;22846;42.654;23.314;2023-08-06T02:31:10;93351.31;;;27.43;50.34
31337;BME280;22846;42.654;23.314;2023-08-06T02:33:35;93347.84;;;27.42;50.80
31337;BME280;22846;42.654;23.314;2023-08-06T02:36:02;93338.09;;;27.41;50.71
31337;BME280;22846;42.654;23.314;2023-08-06T02:38:31;93362.78;;;27.41;50.63
31337;BME280;22846;42.654;23.314;2023-08-06T02:40:57;93385.22;;;27.40;50.24
31337;BME280;22846;42.654;23.314;2023-08-06T02:43:22;93400.94;;;27.39;50.58
31337;BME280;22846;42.654;23.314;2023-08-06T02:45:47;93382.97;;;27.38;49.96
31337;BME280;22846;42.654;23.314;2023-08-06T02:48:13;93370.47;;;27.37;50.26
31337;BME280;22846;42.654;23.314;2023-08-06T02:50:39;93360.00;;;27.36;50.55
31337;BME280;22846;42.654;23.314;2023-08-06T02:53:06;93328.31;;;27.35;50.47
31337;BME280;22846;42.654;23.314;2023-08-06T02:55:32;93336.53;;;27.35;50.72
31337;BME280;22846;42.654;23.314;2023-08-06T02:57:58;93329.06;;;27.35;50.59
31337;BME280;22846;42.654;23.314;2023-08-06T03:00:24;93323.56;;;27.35;50.64
31337;BME280;22846;42.654;23.314;2023-08-06T03:02:49;93345.50;;;27.35;50.31
31337;BME280;22846;42.654;23.314;2023-08-06T03:05:15;93328.31;;;27.35;49.89
31337;BME280;22846;42.654;23.314;2023-08-06T03:07:40;93300.09;;;27.34;49.80
31337;BME280;22846;42.654;23.314;2023-08-06T03:10:06;93308.34;;;27.34;49.86
31337;BME280;22846;42.654;23.314;2023-08-06T03:12:31;93332.78;;;27.33;50.09
31337;BME280;22846;42.654;23.314;2023-08-06T03:14:56;93329.78;;;27.31;50.11
31337;BME280;22846;42.654;23.314;2023-08-06T03:17:22;93323.03;;;27.32;50.47
31337;BME280;22846;42.654;23.314;2023-08-06T03:19:47;93299.59;;;27.31;50.17
31337;BME280;22846;42.654;23.314;2023-08-06T03:22:12;93279.66;;;27.30;50.21
31337;BME280;22846;42.654;23.314;2023-08-06T03:24:38;93292.59;;;27.30;49.96
31337;BME280;22846;42.654;23.314;2023-08-06T03:27:03;93312.28;;;27.28;50.13
31337;BME280;22846;42.654;23.314;2023-08-06T03:29:29;93330.97;;;27.24;49.89
31337;BME280;22846;42.654;23.314;2023-08-06T03:31:54;93341.47;;;27.26;49.58
31337;BME280;22846;42.654;23.314;2023-08-06T03:34:20;93346.94;;;27.26;49.55
31337;BME280;22846;42.654;23.314;2023-08-06T03:36:45;93346.69;;;27.24;49.69
31337;BME280;22846;42.654;23.314;2023-08-06T03:39:10;93330.97;;;27.24;50.09
31337;BME280;22846;42.654;23.314;2023-08-06T03:41:36;93337.69;;;27.23;49.98
31337;BME280;22846;42.654;23.314;2023-08-06T03:44:01;93347.91;;;27.23;50.20
31337;BME280;22846;42.654;23.314;2023-08-06T03:46:29;93343.94;;;27.24;50.32
31337;BME280;22846;42.654;23.314;2023-08-06T03:48:54;93328.97;;;27.25;50.70
31337;BME280;22846;42.654;23.314;2023-08-06T03:51:19;93345.44;;;27.25;50.74
31337;BME280;22846;42.654;23.314;2023-08-06T03:53:45;93355.19;;;27.26;50.72
31337;BME280;22846;42.654;23.314;2023-08-06T03:56:10;93361.91;;;27.25;51.04
31337;BME280;22846;42.654;23.314;2023-08-06T03:58:36;93359.16;;;27.25;51.09
31337;BME280;22846;42.654;23.314;2023-08-06T04:01:02;93367.38;;;27.25;50.32
31337;BME280;22846;42.654;23.314;2023-08-06T04:03:28;93371.38;;;27.24;50.44
31337;BME280;22846;42.654;23.314;2023-08-06T04:05:54;93378.34;;;27.25;50.51
31337;BME280;22846;42.654;23.314;2023-08-06T04:08:19;93378.34;;;27.25;50.53
31337;BME280;22846;42.654;23.314;2023-08-06T04:10:45;93373.09;;;27.21;50.42
31337;BME280;22846;42.654;23.314;2023-08-06T04:13:10;93374.84;;;27.24;50.45
31337;BME280;22846;42.654;23.314;2023-08-06T04:15:36;93362.13;;;27.21;50.35
31337;BME280;22846;42.654;23.314;2023-08-06T04:18:01;93371.38;;;27.24;50.27
31337;BME280;22846;42.654;23.314;2023-08-06T04:20:26;93371.38;;;27.24;50.42
31337;BME280;22846;42.654;23.314;2023-08-06T04:22:54;93360.84;;;27.17;50.63
31337;BME280;22846;42.654;23.314;2023-08-06T04:25:20;93367.38;;;27.25;50.56
31337;BME280;22846;42.654;23.314;2023-08-06T04:27:49;93362.63;;;27.25;50.62
31337;BME280;22846;42.654;23.314;2023-08-06T04:30:14;93362.13;;;27.27;50.56
31337;BME280;22846;42.654;23.314;2023-08-06T04:32:40;93358.16;;;27.28;50.76
31337;BME280;22846;42.654;23.314;2023-08-06T04:35:05;93348.44;;;27.27;50.73
31337;BME280;22846;42.654;23.314;2023-08-06T04:37:31;93342.94;;;27.27;50.91
31337;BME280;22846;42.654;23.314;2023-08-06T04:39:56;93336.22;;;27.28;51.16
31337;BME280;22846;42.654;23.314;2023-08-06T04:42:22;93330.25;;;27.29;51.29
31337;BME280;22846;42.654;23.314;2023-08-06T04:44:47;93329.03;;;27.30;51.24
31337;BME280;22846;42.654;23.314;2023-08-06T04:47:12;93311.06;;;27.29;51.02
31337;BME280;22846;42.654;23.314;2023-08-06T04:49:38;93303.84;;;27.32;51.30
31337;BME280;22846;42.654;23.314;2023-08-06T04:52:04;93301.09;;;27.32;51.34
31337;BME280;22846;42.654;23.314;2023-08-06T04:54:29;93299.38;;;27.34;51.46
31337;BME280;22846;42.654;23.314;2023-08-06T04:56:54;93291.88;;;27.34;51.40
31337;BME280;22846;42.654;23.314;2023-08-06T04:59:20;93280.16;;;27.34;51.38
31337;BME280;22846;42.654;23.314;2023-08-06T05:01:45;93278.94;;;27.35;51.29
31337;BME280;22846;42.654;23.314;2023-08-06T05:04:10;93279.66;;;27.35;51.01
31337;BME280;22846;42.654;23.314;2023-08-06T05:06:36;93281.94;;;27.37;51.26
31337;BME280;22846;42.654;23.314;2023-08-06T05:09:03;93279.88;;;27.32;51.55
31337;BME280;22846;42.654;23.314;2023-08-06T05:11:30;93291.44;;;27.41;51.65
31337;BME280;22846;42.654;23.314;2023-08-06T05:13:55;93298.69;;;27.44;51.22
31337;BME280;22846;42.654;23.314;2023-08-06T05:16:20;93276.69;;;27.39;51.04
31337;BME280;22846;42.654;23.314;2023-08-06T05:18:46;93288.75;;;27.52;50.72
31337;BME280;22846;42.654;23.314;2023-08-06T05:21:11;93290.81;;;27.57;50.72
31337;BME280;22846;42.654;23.314;2023-08-06T05:23:37;93286.88;;;27.64;50.71
31337;BME280;22846;42.654;23.314;2023-08-06T05:26:02;93286.16;;;27.69;50.59
31337;BME280;22846;42.654;23.314;2023-08-06T05:28:27;93277.69;;;27.72;50.60
31337;BME280;22846;42.654;23.314;2023-08-06T05:30:53;93276.22;;;27.77;50.54
31337;BME280;22846;42.654;23.314;2023-08-06T05:33:18;93273.50;;;27.82;50.34
31337;BME280;22846;42.654;23.314;2023-08-06T05:35:44;93268.53;;;27.86;50.69
31337;BME280;22846;42.654;23.314;2023-08-06T05:38:10;93269.06;;;27.90;49.95
31337;BME280;22846;42.654;23.314;2023-08-06T05:40:36;93267.28;;;27.87;50.36
31337;BME280;22846;42.654;23.314;2023-08-06T05:43:01;93272.34;;;28.00;50.62
31337;BME280;22846;42.654;23.314;2023-08-06T05:45:26;93267.38;;;28.04;50.48
31337;BME280;22846;42.654;23.314;2023-08-06T05:47:52;93259.09;;;27.98;50.20
31337;BME280;22846;42.654;23.314;2023-08-06T05:50:19;93266.63;;;28.09;50.03
31337;BME280;22846;42.654;23.314;2023-08-06T05:52:45;93284.13;;;28.11;49.96
31337;BME280;22846;42.654;23.314;2023-08-06T05:55:10;93283.91;;;28.15;50.04
31337;BME280;22846;42.654;23.314;2023-08-06T05:57:35;93291.41;;;28.19;50.08
31337;BME280;22846;42.654;23.314;2023-08-06T06:00:01;93292.69;;;28.24;50.13
31337;BME280;22846;42.654;23.314;2023-08-06T06:02:27;93294.47;;;28.27;49.83
31337;BME280;22846;42.654;23.314;2023-08-06T06:04:52;93300.47;;;28.31;49.98
31337;BME280;22846;42.654;23.314;2023-08-06T06:07:18;93303.75;;;28.35;49.79
31337;BME280;22846;42.654;23.314;2023-08-06T06:09:43;93298.50;;;28.37;49.78
31337;BME280;22846;42.654;23.314;2023-08-06T06:12:08;93307.00;;;28.39;49.69
31337;BME280;22846;42.654;23.314;2023-08-06T06:14:34;93312.50;;;28.44;49.68
31337;BME280;22846;42.654;23.314;2023-08-06T06:16:59;93316.75;;;28.45;49.66
31337;BME280;22846;42.654;23.314;2023-08-06T06:19:27;93322.28;;;28.51;49.32
31337;BME280;22846;42.654;23.314;2023-08-06T06:21:53;93325.28;;;28.53;49.16
31337;BME280;22846;42.654;23.314;2023-08-06T06:24:18;93334.81;;;28.57;49.06
31337;BME280;22846;42.654;23.314;2023-08-06T06:26:44;93331.81;;;28.61;48.78
31337;BME280;22846;42.654;23.314;2023-08-06T06:29:09;93335.56;;;28.63;49.09
31337;BME280;22846;42.654;23.314;2023-08-06T06:31:35;93335.31;;;28.67;48.62
31337;BME280;22846;42.654;23.314;2023-08-06T06:34:00;93336.81;;;28.68;48.59
31337;BME280;22846;42.654;23.314;2023-08-06T06:36:26;93350.06;;;28.69;48.83
31337;BME280;22846;42.654;23.314;2023-08-06T06:38:51;93348.34;;;28.72;48.74
31337;BME280;22846;42.654;23.314;2023-08-06T06:41:17;93352.56;;;28.73;48.36
31337;BME280;22846;42.654;23.314;2023-08-06T06:43:42;93355.13;;;28.76;48.27
31337;BME280;22846;42.654;23.314;2023-08-06T06:46:07;93358.88;;;28.79;48.08
31337;BME280;22846;42.654;23.314;2023-08-06T06:48:33;93372.91;;;28.81;47.97
31337;BME280;22846;42.654;23.314;2023-08-06T06:50:59;93355.84;;;28.77;48.24
31337;BME280;22846;42.654;23.314;2023-08-06T06:53:25;93368.41;;;28.83;47.82
31337;BME280;22846;42.654;23.314;2023-08-06T06:56:01;93377.41;;;28.84;47.49
31337;BME280;22846;42.654;23.314;2023-08-06T06:58:26;93382.41;;;28.85;47.92
31337;BME280;22846;42.654;23.314;2023-08-06T07:00:52;93390.66;;;28.85;47.52
31337;BME280;22846;42.654;23.314;2023-08-06T07:03:19;93391.41;;;28.86;47.65
31337;BME280;22846;42.654;23.314;2023-08-06T07:05:44;93397.66;;;28.86;47.58
31337;BME280;22846;42.654;23.314;2023-08-06T07:08:10;93398.69;;;28.89;47.52
31337;BME280;22846;42.654;23.314;2023-08-06T07:10:35;93398.69;;;28.89;47.40
31337;BME280;22846;42.654;23.314;2023-08-06T07:13:01;93409.19;;;28.90;47.10
31337;BME280;22846;42.654;23.314;2023-08-06T07:15:26;93410.69;;;28.91;47.24
31337;BME280;22846;42.654;23.314;2023-08-06T07:17:51;93413.69;;;28.93;47.19
31337;BME280;22846;42.654;23.314;2023-08-06T07:20:17;93409.69;;;28.94;46.97
31337;BME280;22846;42.654;23.314;2023-08-06T07:22:43;93409.19;;;28.96;46.77
31337;BME280;22846;42.654;23.314;2023-08-06T07:25:09;93403.19;;;28.97;46.62
31337;BME280;22846;42.654;23.314;2023-08-06T07:27:34;93405.44;;;28.99;46.65
31337;BME280;22846;42.654;23.314;2023-08-06T07:30:00;93409.22;;;29.01;46.30
31337;BME280;22846;42.654;23.314;2023-08-06T07:32:26;93421.97;;;29.04;46.17
31337;BME280;22846;42.654;23.314;2023-08-06T07:34:51;93410.72;;;29.07;46.15
31337;BME280;22846;42.654;23.314;2023-08-06T07:37:22;93402.72;;;29.09;46.28
31337;BME280;22846;42.654;23.314;2023-08-06T07:39:47;93414.00;;;29.11;46.08
31337;BME280;22846;42.654;23.314;2023-08-06T07:42:13;93401.22;;;29.14;46.09
31337;BME280;22846;42.654;23.314;2023-08-06T07:44:38;93405.75;;;29.17;46.02
31337;BME280;22846;42.654;23.314;2023-08-06T07:47:04;93403.75;;;29.17;46.19
31337;BME280;22846;42.654;23.314;2023-08-06T07:49:30;93404.00;;;29.19;45.94
31337;BME280;22846;42.654;23.314;2023-08-06T07:51:55;93409.25;;;29.23;45.94
31337;BME280;22846;42.654;23.314;2023-08-06T07:54:20;93408.00;;;29.24;45.89
31337;BME280;22846;42.654;23.314;2023-08-06T07:56:46;93402.78;;;29.26;45.71
31337;BME280;22846;42.654;23.314;2023-08-06T07:59:11;93395.25;;;29.26;45.36
31337;BME280;22846;42.654;23.314;2023-08-06T08:01:36;93404.50;;;29.29;45.68
31337;BME280;22846;42.654;23.314;2023-08-06T08:04:02;93403.25;;;29.30;45.72
31337;BME280;22846;42.654;23.314;2023-08-06T08:06:27;93403.53;;;29.32;45.54
31337;BME280;22846;42.654;23.314;2023-08-06T08:08:52;93394.03;;;29.33;45.56
31337;BME280;22846;42.654;23.314;2023-08-06T08:11:18;93401.78;;;29.34;45.29
31337;BME280;22846;42.654;23.314;2023-08-06T08:13:44;93398.53;;;29.36;45.31
31337;BME280;22846;42.654;23.314;2023-08-06T08:16:09;93404.28;;;29.32;45.17
31337;BME280;22846;42.654;23.314;2023-08-06T08:18:35;93405.81;;;29.39;45.08
31337;BME280;22846;42.654;23.314;2023-08-06T08:21:00;93399.06;;;29.40;45.19
31337;BME280;22846;42.654;23.314;2023-08-06T08:23:25;93392.31;;;29.41;45.25
31337;BME280;22846;42.654;23.314;2023-08-06T08:25:51;93401.31;;;29.41;45.15
31337;BME280;22846;42.654;23.314;2023-08-06T08:28:16;93398.56;;;29.41;45.32
31337;BME280;22846;42.654;23.314;2023-08-06T08:30:43;93384.78;;;29.36;45.08
31337;BME280;22846;42.654;23.314;2023-08-06T08:33:09;93409.06;;;29.43;45.26
31337;BME280;22846;42.654;23.314;2023-08-06T08:35:36;93398.81;;;29.43;45.22
31337;BME280;22846;42.654;23.314;2023-08-06T08:38:02;93392.06;;;29.44;45.16
31337;BME280;22846;42.654;23.314;2023-08-06T08:40:31;93401.56;;;29.43;45.12
31337;BME280;22846;42.654;23.314;2023-08-06T08:42:58;93399.31;;;29.42;44.88
31337;BME280;22846;42.654;23.314;2023-08-06T08:45:26;93402.56;;;29.40;44.61
31337;BME280;22846;42.654;23.314;2023-08-06T08:47:52;93396.56;;;29.42;44.88
31337;BME280;22846;42.654;23.314;2023-08-06T08:50:18;93400.81;;;29.43;44.29
31337;BME280;22846;42.654;23.314;2023-08-06T08:52:45;93391.06;;;29.42;44.08
31337;BME280;22846;42.654;23.314;2023-08-06T08:55:12;93383.53;;;29.42;44.78
31337;BME280;22846;42.654;23.314;2023-08-06T08:57:39;93387.78;;;29.43;44.88
31337;BME280;22846;42.654;23.314;2023-08-06T09:00:05;93381.50;;;29.26;40.69
31337;BME280;22846;42.654;23.314;2023-08-06T09:02:32;93379.72;;;29.07;40.21
31337;BME280;22846;42.654;23.314;2023-08-06T09:05:00;93371.91;;;28.84;39.07
31337;BME280;22846;42.654;23.314;2023-08-06T09:07:29;93371.31;;;28.69;39.25
31337;BME280;22846;42.654;23.314;2023-08-06T09:09:58;93374.78;;;28.53;39.57
31337;BME280;22846;42.654;23.314;2023-08-06T09:12:24;93370.19;;;28.39;39.73
31337;BME280;22846;42.654;23.314;2023-08-06T09:14:50;93376.16;;;28.32;40.14
31337;BME280;22846;42.654;23.314;2023-08-06T09:17:16;93350.84;;;28.17;40.47
31337;BME280;22846;42.654;23.314;2023-08-06T09:19:45;93380.81;;;28.20;40.59
31337;BME280;22846;42.654;23.314;2023-08-06T09:22:12;93360.56;;;28.13;40.65
31337;BME280;22846;42.654;23.314;2023-08-06T09:24:42;93364.28;;;28.10;40.37
31337;BME280;22846;42.654;23.314;2023-08-06T09:27:15;93372.47;;;28.04;40.30
31337;BME280;22846;42.654;23.314;2023-08-06T09:29:44;93358.97;;;28.01;40.11
31337;BME280;22846;42.654;23.314;2023-08-06T09:32:11;93340.97;;;27.94;40.07
31337;BME280;22846;42.654;23.314;2023-08-06T09:34:39;93349.22;;;27.94;40.54
31337;BME280;22846;42.654;23.314;2023-08-06T09:37:05;93344.19;;;27.93;40.20
31337;BME280;22846;42.654;23.314;2023-08-06T09:39:31;93339.47;;;27.93;40.31
31337;BME280;22846;42.654;23.314;2023-08-06T09:42:01;93327.44;;;27.85;40.41
31337;BME280;22846;42.654;23.314;2023-08-06T09:44:28;93331.25;;;27.93;40.63
31337;BME280;22846;42.654;23.314;2023-08-06T09:46:55;93349.03;;;28.03;39.93
31337;BME280;22846;42.654;23.314;2023-08-06T09:49:41;93352.78;;;28.06;40.42
31337;BME280;22846;42.654;23.314;2023-08-06T09:52:14;93342.53;;;28.06;40.13
31337;BME280;22846;42.654;23.314;2023-08-06T09:54:43;93351.41;;;27.85;41.00
31337;BME280;22846;42.654;23.314;2023-08-06T09:57:08;93351.97;;;28.00;40.94
31337;BME280;22846;42.654;23.314;2023-08-06T09:59:35;93344.03;;;28.07;40.58
31337;BME280;22846;42.654;23.314;2023-08-06T10:02:02;93347.81;;;28.15;40.93
31337;BME280;22846;42.654;23.314;2023-08-06T10:04:33;93355.63;;;28.22;41.89
31337;BME280;22846;42.654;23.314;2023-08-06T10:06:59;93345.66;;;28.30;41.56
31337;BME280;22846;42.654;23.314;2023-08-06T10:09:24;93352.25;;;28.49;42.25
31337;BME280;22846;42.654;23.314;2023-08-06T10:11:51;93360.56;;;28.65;42.01
31337;BME280;22846;42.654;23.314;2023-08-06T10:14:22;93352.09;;;28.69;41.94
31337;BME280;22846;42.654;23.314;2023-08-06T10:16:50;93363.16;;;28.85;42.04
31337;BME280;22846;42.654;23.314;2023-08-06T10:19:16;93362.19;;;28.94;41.81
31337;BME280;22846;42.654;23.314;2023-08-06T10:22:12;93358.94;;;29.01;41.81
31337;BME280;22846;42.654;23.314;2023-08-06T10:24:55;93356.97;;;29.06;42.09
31337;BME280;22846;42.654;23.314;2023-08-06T10:27:54;93359.69;;;29.12;42.19
31337;BME280;22846;42.654;23.314;2023-08-06T10:30:23;93360.22;;;29.16;42.08
31337;BME280;22846;42.654;23.314;2023-08-06T10:32:51;93368.50;;;29.21;41.84
31337;BME280;22846;42.654;23.314;2023-08-06T10:38:11;93370.00;;;29.28;42.31
31337;BME280;22846;42.654;23.314;2023-08-06T10:40:39;93378.00;;;29.31;42.00
31337;BME280;22846;42.654;23.314;2023-08-06T10:43:05;93384.50;;;29.34;41.99
31337;BME280;22846;42.654;23.314;2023-08-06T10:45:37;93385.53;;;29.36;41.87
31337;BME280;22846;42.654;23.314;2023-08-06T10:48:03;93390.53;;;29.38;42.29
31337;BME280;22846;42.654;23.314;2023-08-06T10:50:29;93393.06;;;29.41;42.07
31337;BME280;22846;42.654;23.314;2023-08-06T10:52:57;93401.56;;;29.43;42.26
31337;BME280;22846;42.654;23.314;2023-08-06T10:55:27;93391.31;;;29.44;42.41
31337;BME280;22846;42.654;23.314;2023-08-06T10:57:53;93396.31;;;29.45;42.21
31337;BME280;22846;42.654;23.314;2023-08-06T11:00:21;93399.31;;;29.47;42.53
31337;BME280;22846;42.654;23.314;2023-08-06T11:02:47;93405.09;;;29.49;42.37
31337;BME280;22846;42.654;23.314;2023-08-06T11:05:13;93413.56;;;29.51;42.63
31337;BME280;22846;42.654;23.314;2023-08-06T11:07:38;93406.81;;;29.52;42.43
31337;BME280;22846;42.654;23.314;2023-08-06T11:10:06;93411.84;;;29.54;42.84
31337;BME280;22846;42.654;23.314;2023-08-06T11:12:32;93396.31;;;29.45;42.47
31337;BME280;22846;42.654;23.314;2023-08-06T11:14:58;93402.56;;;29.57;42.76
31337;BME280;22846;42.654;23.314;2023-08-06T11:17:23;93403.34;;;29.57;42.95
31337;BME280;22846;42.654;23.314;2023-08-06T11:19:49;93407.59;;;29.58;42.91
31337;BME280;22846;42.654;23.314;2023-08-06T11:22:15;93426.38;;;29.60;42.87
31337;BME280;22846;42.654;23.314;2023-08-06T11:24:41;93446.38;;;29.60;43.13
31337;BME280;22846;42.654;23.314;2023-08-06T11:27:13;93427.59;;;29.53;42.99
31337;BME280;22846;42.654;23.314;2023-08-06T11:29:40;93433.13;;;29.64;43.09
31337;BME280;22846;42.654;23.314;2023-08-06T11:32:06;93424.88;;;29.64;43.24
31337;BME280;22846;42.654;23.314;2023-08-06T11:34:32;93438.13;;;29.66;43.23
31337;BME280;22846;42.654;23.314;2023-08-06T11:36:58;93437.88;;;29.64;43.00
31337;BME280;22846;42.654;23.314;2023-08-06T11:39:23;93430.63;;;29.66;43.12
31337;BME280;22846;42.654;23.314;2023-08-06T11:41:49;93431.38;;;29.67;43.14
31337;BME280;22846;42.654;23.314;2023-08-06T11:44:15;93432.88;;;29.68;43.42
31337;BME280;22846;42.654;23.314;2023-08-06T11:46:50;93416.88;;;29.66;43.43
31337;BME280;22846;42.654;23.314;2023-08-06T11:49:17;93412.34;;;29.69;43.19
31337;BME280;22846;42.654;23.314;2023-08-06T11:51:47;93415.84;;;29.69;43.22
31337;BME280;22846;42.654;23.314;2023-08-06T11:54:12;93419.38;;;29.70;43.52
31337;BME280;22846;42.654;23.314;2023-08-06T11:56:37;93421.59;;;29.71;43.46
31337;BME280;22846;42.654;23.314;2023-08-06T11:59:03;93411.38;;;29.72;43.57
31337;BME280;22846;42.654;23.314;2023-08-06T12:01:28;93410.09;;;29.73;43.32
31337;BME280;22846;42.654;23.314;2023-08-06T12:03:59;93403.09;;;29.72;43.54
31337;BME280;22846;42.654;23.314;2023-08-06T12:06:27;93403.31;;;29.74;43.40
31337;BME280;22846;42.654;23.314;2023-08-06T12:08:52;93415.84;;;29.75;43.72
31337;BME280;22846;42.654;23.314;2023-08-06T12:11:20;93405.59;;;29.75;43.56
31337;BME280;22846;42.654;23.314;2023-08-06T12:13:50;93403.59;;;29.76;43.53
31337;BME280;22846;42.654;23.314;2023-08-06T12:16:16;93396.06;;;29.76;43.44
31337;BME280;22846;42.654;23.314;2023-08-06T12:18:44;93390.56;;;29.76;43.52
31337;BME280;22846;42.654;23.314;2023-08-06T12:21:09;93392.06;;;29.77;43.77
31337;BME280;22846;42.654;23.314;2023-08-06T12:23:35;93392.06;;;29.77;43.72
31337;BME280;22846;42.654;23.314;2023-08-06T12:26:01;93385.31;;;29.78;43.48
31337;BME280;22846;42.654;23.314;2023-08-06T12:28:26;93394.34;;;29.79;43.56
31337;BME280;22846;42.654;23.314;2023-08-06T12:30:52;93396.31;;;29.78;43.45
31337;BME280;22846;42.654;23.314;2023-08-06T12:33:20;93394.34;;;29.79;43.67
31337;BME280;22846;42.654;23.314;2023-08-06T12:35:45;93401.34;;;29.80;43.89
31337;BME280;22846;42.654;23.314;2023-08-06T12:38:11;93397.81;;;29.79;43.60
31337;BME280;22846;42.654;23.314;2023-08-06T12:40:36;93402.09;;;29.80;43.53
31337;BME280;22846;42.654;23.314;2023-08-06T12:43:02;93391.06;;;29.75;44.11
31337;BME280;22846;42.654;23.314;2023-08-06T12:45:27;93387.56;;;29.80;43.65
31337;BME280;22846;42.654;23.314;2023-08-06T12:47:52;93391.81;;;29.81;43.72
31337;BME280;22846;42.654;23.314;2023-08-06T12:50:18;93383.53;;;29.81;43.65
31337;BME280;22846;42.654;23.314;2023-08-06T12:52:44;93387.06;;;29.81;43.86
31337;BME280;22846;42.654;23.314;2023-08-06T12:55:09;93386.28;;;29.81;43.79